PWSweather.com
Personal Weather Stations
Station Observations
IPODRAVI2
Croatia, Trnovec BartoloveckiHR

CroatiaTrnovec BartoloveckiHR

Lat: 46.2947, Lon: 16.3989

Elevation: 535

Station Type: Davis Vantage Pro2 plus

http://www.pljusak.com/trnovec1/wx.html

High Low Average
Temperature 90.3°F32.4°F 62.6°F17.0°F 74.7°F23.7°F
Dew Point 69.2°F20.7°F 60.6°F15.9°F 65.0°F18.3°F
Winds 20.7 mph W33.3 mph W Calm Calm 3.0 mph 4.8 mph
Wind Gusts 36.8 mph59.2 mph -- 5.8 mph9.3 mph
Humidity 94% 44% 74%
Pressure 29.72 in1006.40 in 29.48 in998.30 in -
Precipitation 0.65 in16.50 in - -
Hour Temp Dew Point Humidity Winds Wind Gusts Pressure Precip Precip Rate Daily Precip Total
12:00 AM 72.7°F22.6°C 63.9°F17.7°C 74% Calm Calm -- 29.72 in1006.4 mb - 0.00 in0.0 mm 0.00 in0.0 mm
12:10 AM 72.1°F22.3°C 63.8°F17.7°C 75% Calm Calm -- 29.71 in1006.1 mb - 0.00 in0.0 mm 0.00 in0.0 mm
12:15 AM 71.8°F22.1°C 63.8°F17.7°C 76% Calm Calm -- 29.71 in1006.1 mb - 0.00 in0.0 mm 0.00 in0.0 mm
12:20 AM 71.6°F22.0°C 64.0°F17.8°C 77% Calm Calm -- 29.71 in1006.1 mb - 0.00 in0.0 mm 0.00 in0.0 mm
12:25 AM 71.2°F21.8°C 63.6°F17.6°C 77% Calm Calm -- 29.71 in1006.1 mb - 0.00 in0.0 mm 0.00 in0.0 mm
12:30 AM 70.9°F21.6°C 63.7°F17.6°C 78% Calm Calm -- 29.71 in1006.1 mb - 0.00 in0.0 mm 0.00 in0.0 mm
12:35 AM 70.6°F21.4°C 63.4°F17.4°C 78% Calm Calm -- 29.71 in1006.1 mb - 0.00 in0.0 mm 0.00 in0.0 mm
12:40 AM 70.3°F21.3°C 63.5°F17.5°C 79% Calm Calm -- 29.71 in1006.1 mb - 0.00 in0.0 mm 0.00 in0.0 mm
12:45 AM 70.2°F21.2°C 63.4°F17.4°C 79% Calm Calm -- 29.71 in1006.1 mb - 0.00 in0.0 mm 0.00 in0.0 mm
12:50 AM 70.1°F21.2°C 63.6°F17.6°C 80% Calm Calm -- 29.71 in1006.1 mb - 0.00 in0.0 mm 0.00 in0.0 mm
12:55 AM 70.0°F21.1°C 63.2°F17.3°C 79% Calm Calm -- 29.71 in1006.1 mb - 0.00 in0.0 mm 0.00 in0.0 mm
01:00 AM 69.9°F21.1°C 63.4°F17.4°C 80% Calm Calm -- 29.71 in1006.1 mb - 0.00 in0.0 mm 0.00 in0.0 mm
01:10 AM 69.7°F20.9°C 63.6°F17.6°C 81% Calm Calm -- 29.71 in1006.1 mb - 0.00 in0.0 mm 0.00 in0.0 mm
01:15 AM 69.6°F20.9°C 63.5°F17.5°C 81% Calm Calm -- 29.71 in1006.1 mb - 0.00 in0.0 mm 0.00 in0.0 mm
01:20 AM 69.4°F20.8°C 63.3°F17.4°C 81% Calm Calm -- 29.71 in1006.1 mb - 0.00 in0.0 mm 0.00 in0.0 mm
01:25 AM 69.4°F20.8°C 63.3°F17.4°C 81% Calm Calm -- 29.71 in1006.1 mb - 0.00 in0.0 mm 0.00 in0.0 mm
01:30 AM 69.2°F20.7°C 63.1°F17.3°C 81% Calm Calm -- 29.70 in1005.8 mb - 0.00 in0.0 mm 0.00 in0.0 mm
01:35 AM 69.0°F20.6°C 63.3°F17.4°C 82% Calm Calm -- 29.70 in1005.8 mb - 0.00 in0.0 mm 0.00 in0.0 mm
01:40 AM 68.8°F20.4°C 63.1°F17.3°C 82% Calm Calm -- 29.70 in1005.8 mb - 0.00 in0.0 mm 0.00 in0.0 mm
01:45 AM 68.7°F20.4°C 62.9°F17.2°C 82% Calm Calm -- 29.70 in1005.8 mb - 0.00 in0.0 mm 0.00 in0.0 mm
01:50 AM 68.5°F20.3°C 62.8°F17.1°C 82% Calm Calm -- 29.70 in1005.8 mb - 0.00 in0.0 mm 0.00 in0.0 mm
01:55 AM 68.4°F20.2°C 63.0°F17.2°C 83% Calm Calm -- 29.70 in1005.8 mb - 0.00 in0.0 mm 0.00 in0.0 mm
02:00 AM 68.3°F20.2°C 62.9°F17.2°C 83% Calm Calm -- 29.70 in1005.8 mb - 0.00 in0.0 mm 0.00 in0.0 mm
02:10 AM 68.1°F20.1°C 62.7°F17.1°C 83% Calm Calm -- 29.70 in1005.8 mb - 0.00 in0.0 mm 0.00 in0.0 mm
02:15 AM 68.0°F20.0°C 62.6°F17.0°C 83% Calm Calm -- 29.69 in1005.4 mb - 0.00 in0.0 mm 0.00 in0.0 mm
02:20 AM 68.0°F20.0°C 62.6°F17.0°C 83% Calm Calm -- 29.69 in1005.4 mb - 0.00 in0.0 mm 0.00 in0.0 mm
02:25 AM 67.9°F19.9°C 62.9°F17.2°C 84% Calm Calm -- 29.69 in1005.4 mb - 0.00 in0.0 mm 0.00 in0.0 mm
02:35 AM 67.7°F19.8°C 62.7°F17.1°C 84% Calm Calm -- 29.68 in1005.1 mb - 0.00 in0.0 mm 0.00 in0.0 mm
02:40 AM 67.5°F19.7°C 62.5°F16.9°C 84% Calm Calm -- 29.68 in1005.1 mb - 0.00 in0.0 mm 0.00 in0.0 mm
02:45 AM 67.3°F19.6°C 62.3°F16.8°C 84% Calm Calm -- 29.68 in1005.1 mb - 0.00 in0.0 mm 0.00 in0.0 mm
02:50 AM 67.2°F19.6°C 62.2°F16.8°C 84% Calm Calm -- 29.68 in1005.1 mb - 0.00 in0.0 mm 0.00 in0.0 mm
02:55 AM 67.1°F19.5°C 62.4°F16.9°C 85% Calm Calm -- 29.68 in1005.1 mb - 0.00 in0.0 mm 0.00 in0.0 mm
03:00 AM 67.0°F19.4°C 62.3°F16.8°C 85% Calm Calm -- 29.68 in1005.1 mb - 0.00 in0.0 mm 0.00 in0.0 mm
03:10 AM 66.8°F19.3°C 62.1°F16.7°C 85% Calm Calm -- 29.68 in1005.1 mb - 0.00 in0.0 mm 0.00 in0.0 mm
03:15 AM 66.7°F19.3°C 62.0°F16.7°C 85% Calm Calm -- 29.68 in1005.1 mb - 0.00 in0.0 mm 0.00 in0.0 mm
03:20 AM 66.7°F19.3°C 62.0°F16.7°C 85% Calm Calm -- 29.68 in1005.1 mb - 0.00 in0.0 mm 0.00 in0.0 mm
03:25 AM 66.6°F19.2°C 61.9°F16.6°C 85% Calm Calm -- 29.68 in1005.1 mb - 0.00 in0.0 mm 0.00 in0.0 mm
03:30 AM 66.6°F19.2°C 61.9°F16.6°C 85% Calm Calm -- 29.68 in1005.1 mb - 0.00 in0.0 mm 0.00 in0.0 mm
03:35 AM 66.5°F19.2°C 62.2°F16.8°C 86% Calm Calm -- 29.68 in1005.1 mb - 0.00 in0.0 mm 0.00 in0.0 mm
03:40 AM 66.5°F19.2°C 61.8°F16.6°C 85% Calm Calm -- 29.68 in1005.1 mb - 0.00 in0.0 mm 0.00 in0.0 mm
03:45 AM 66.4°F19.1°C 62.1°F16.7°C 86% Calm Calm -- 29.68 in1005.1 mb - 0.00 in0.0 mm 0.00 in0.0 mm
03:50 AM 66.2°F19.0°C 61.9°F16.6°C 86% Calm Calm -- 29.68 in1005.1 mb - 0.00 in0.0 mm 0.00 in0.0 mm
03:55 AM 66.1°F18.9°C 61.8°F16.6°C 86% Calm Calm -- 29.68 in1005.1 mb - 0.00 in0.0 mm 0.00 in0.0 mm
04:00 AM 66.1°F18.9°C 61.8°F16.6°C 86% Calm Calm -- 29.68 in1005.1 mb - 0.00 in0.0 mm 0.00 in0.0 mm
04:10 AM 66.0°F18.9°C 61.7°F16.5°C 86% Calm Calm -- 29.67 in1004.7 mb - 0.00 in0.0 mm 0.00 in0.0 mm
04:15 AM 66.0°F18.9°C 61.7°F16.5°C 86% Calm Calm -- 29.67 in1004.7 mb - 0.00 in0.0 mm 0.00 in0.0 mm
04:20 AM 66.2°F19.0°C 61.5°F16.4°C 85% Calm Calm -- 29.67 in1004.7 mb - 0.00 in0.0 mm 0.00 in0.0 mm
04:25 AM 66.3°F19.1°C 61.6°F16.4°C 85% Calm Calm -- 29.67 in1004.7 mb - 0.00 in0.0 mm 0.00 in0.0 mm
04:30 AM 66.3°F19.1°C 61.7°F16.5°C 85% Calm Calm -- 29.67 in1004.7 mb - 0.00 in0.0 mm 0.00 in0.0 mm
04:35 AM 66.3°F19.1°C 61.7°F16.5°C 85% Calm Calm -- 29.68 in1005.1 mb - 0.00 in0.0 mm 0.00 in0.0 mm
04:40 AM 66.2°F19.0°C 61.6°F16.4°C 85% Calm Calm -- 29.67 in1004.7 mb - 0.00 in0.0 mm 0.00 in0.0 mm
04:45 AM 66.3°F19.1°C 62.0°F16.7°C 86% Calm Calm -- 29.67 in1004.7 mb - 0.00 in0.0 mm 0.00 in0.0 mm
04:50 AM 66.3°F19.1°C 62.0°F16.7°C 86% Calm Calm -- 29.67 in1004.7 mb - 0.00 in0.0 mm 0.00 in0.0 mm
04:55 AM 66.4°F19.1°C 62.1°F16.7°C 86% Calm Calm -- 29.68 in1005.1 mb - 0.00 in0.0 mm 0.00 in0.0 mm
05:00 AM 66.5°F19.2°C 61.8°F16.6°C 85% Calm Calm -- 29.67 in1004.7 mb - 0.00 in0.0 mm 0.00 in0.0 mm
05:10 AM 67.0°F19.4°C 62.4°F16.9°C 85% Calm Calm -- 29.67 in1004.7 mb - 0.00 in0.0 mm 0.00 in0.0 mm
05:15 AM 67.3°F19.6°C 62.6°F17.0°C 85% Calm Calm -- 29.67 in1004.7 mb - 0.00 in0.0 mm 0.00 in0.0 mm
05:20 AM 67.6°F19.8°C 62.5°F16.9°C 84% Calm Calm -- 29.67 in1004.7 mb - 0.00 in0.0 mm 0.00 in0.0 mm
05:25 AM 67.8°F19.9°C 62.8°F17.1°C 84% Calm Calm -- 29.67 in1004.7 mb - 0.00 in0.0 mm 0.00 in0.0 mm
05:30 AM 68.1°F20.1°C 62.8°F17.1°C 83% Calm Calm -- 29.67 in1004.7 mb - 0.00 in0.0 mm 0.00 in0.0 mm
05:35 AM 68.5°F20.3°C 62.8°F17.1°C 82% Calm Calm -- 29.67 in1004.7 mb - 0.00 in0.0 mm 0.00 in0.0 mm
05:40 AM 68.8°F20.4°C 63.1°F17.3°C 82% Calm Calm -- 29.67 in1004.7 mb - 0.00 in0.0 mm 0.00 in0.0 mm
05:45 AM 69.1°F20.6°C 63.4°F17.4°C 82% Calm Calm -- 29.67 in1004.7 mb - 0.00 in0.0 mm 0.00 in0.0 mm
05:50 AM 69.4°F20.8°C 63.3°F17.4°C 81% Calm Calm -- 29.67 in1004.7 mb - 0.00 in0.0 mm 0.00 in0.0 mm
05:55 AM 69.6°F20.9°C 63.9°F17.7°C 82% Calm Calm -- 29.67 in1004.7 mb - 0.00 in0.0 mm 0.00 in0.0 mm
06:00 AM 69.9°F21.1°C 63.9°F17.7°C 81% Calm Calm -- 29.66 in1004.4 mb - 0.00 in0.0 mm 0.00 in0.0 mm
06:10 AM 71.2°F21.8°C 64.7°F18.2°C 80% Calm Calm -- 29.66 in1004.4 mb - 0.00 in0.0 mm 0.00 in0.0 mm
06:15 AM 71.7°F22.1°C 64.5°F18.1°C 78% Calm Calm -- 29.66 in1004.4 mb - 0.00 in0.0 mm 0.00 in0.0 mm
06:20 AM 72.2°F22.3°C 64.6°F18.1°C 77% Calm Calm -- 29.67 in1004.7 mb - 0.00 in0.0 mm 0.00 in0.0 mm
06:25 AM 72.8°F22.7°C 65.1°F18.4°C 77% Calm Calm -- 29.66 in1004.4 mb - 0.00 in0.0 mm 0.00 in0.0 mm
06:30 AM 73.3°F22.9°C 65.3°F18.5°C 76% Calm Calm -- 29.66 in1004.4 mb - 0.00 in0.0 mm 0.00 in0.0 mm
06:35 AM 73.8°F23.2°C 65.0°F18.3°C 74% Calm Calm -- 29.66 in1004.4 mb - 0.00 in0.0 mm 0.00 in0.0 mm
06:40 AM 74.0°F23.3°C 65.2°F18.4°C 74% Calm Calm -- 29.66 in1004.4 mb - 0.00 in0.0 mm 0.00 in0.0 mm
06:45 AM 74.1°F23.4°C 65.3°F18.5°C 74% Calm Calm -- 29.67 in1004.7 mb - 0.00 in0.0 mm 0.00 in0.0 mm
06:50 AM 74.3°F23.5°C 65.5°F18.6°C 74% Calm Calm -- 29.67 in1004.7 mb - 0.00 in0.0 mm 0.00 in0.0 mm
06:55 AM 74.6°F23.7°C 64.9°F18.3°C 72% Calm Calm -- 29.67 in1004.7 mb - 0.00 in0.0 mm 0.00 in0.0 mm
07:00 AM 74.9°F23.8°C 64.5°F18.1°C 70% Calm Calm -- 29.66 in1004.4 mb - 0.00 in0.0 mm 0.00 in0.0 mm
07:10 AM 75.5°F24.2°C 65.1°F18.4°C 70% 1.2 mph S1.9 kmh S 8.1 mph13.0 kmh 29.67 in1004.7 mb - 0.00 in0.0 mm 0.00 in0.0 mm
07:15 AM 75.8°F24.3°C 64.9°F18.3°C 69% 1.2 mph SSE1.9 kmh SSE 6.9 mph11.1 kmh 29.67 in1004.7 mb - 0.00 in0.0 mm 0.00 in0.0 mm
07:20 AM 75.7°F24.3°C 64.8°F18.2°C 69% 2.3 mph S3.7 kmh S 5.8 mph9.3 kmh 29.67 in1004.7 mb - 0.00 in0.0 mm 0.00 in0.0 mm
07:25 AM 75.7°F24.3°C 65.2°F18.4°C 70% 4.6 mph S7.4 kmh S 8.1 mph13.0 kmh 29.66 in1004.4 mb - 0.00 in0.0 mm 0.00 in0.0 mm
07:30 AM 75.7°F24.3°C 64.8°F18.2°C 69% 4.6 mph S7.4 kmh S 6.9 mph11.1 kmh 29.67 in1004.7 mb - 0.00 in0.0 mm 0.00 in0.0 mm
07:35 AM 75.5°F24.2°C 64.6°F18.1°C 69% 6.9 mph SSW11.1 kmh SSW 13.8 mph22.2 kmh 29.67 in1004.7 mb - 0.00 in0.0 mm 0.00 in0.0 mm
07:40 AM 75.4°F24.1°C 64.9°F18.3°C 70% 3.5 mph SSW5.6 kmh SSW 12.7 mph20.4 kmh 29.67 in1004.7 mb - 0.00 in0.0 mm 0.00 in0.0 mm
07:45 AM 75.5°F24.2°C 64.6°F18.1°C 69% 4.6 mph SSW7.4 kmh SSW 10.4 mph16.7 kmh 29.66 in1004.4 mb - 0.00 in0.0 mm 0.00 in0.0 mm
07:50 AM 75.6°F24.2°C 64.7°F18.2°C 69% 5.8 mph S9.3 kmh S 11.5 mph18.5 kmh 29.66 in1004.4 mb - 0.00 in0.0 mm 0.00 in0.0 mm
07:55 AM 75.6°F24.2°C 64.8°F18.2°C 69% 8.1 mph SSW13.0 kmh SSW 11.5 mph18.5 kmh 29.66 in1004.4 mb - 0.00 in0.0 mm 0.00 in0.0 mm
08:00 AM 76.0°F24.4°C 65.1°F18.4°C 69% 5.8 mph S9.3 kmh S 11.5 mph18.5 kmh 29.66 in1004.4 mb - 0.00 in0.0 mm 0.00 in0.0 mm
08:10 AM 76.9°F24.9°C 66.0°F18.9°C 69% 5.8 mph S9.3 kmh S 11.5 mph18.5 kmh 29.66 in1004.4 mb - 0.00 in0.0 mm 0.00 in0.0 mm
08:15 AM 77.6°F25.3°C 65.8°F18.8°C 67% 5.8 mph S9.3 kmh S 12.7 mph20.4 kmh 29.66 in1004.4 mb - 0.00 in0.0 mm 0.00 in0.0 mm
08:20 AM 77.9°F25.5°C 65.7°F18.7°C 66% 6.9 mph S11.1 kmh S 10.4 mph16.7 kmh 29.66 in1004.4 mb - 0.00 in0.0 mm 0.00 in0.0 mm
08:25 AM 78.1°F25.6°C 65.4°F18.6°C 65% 6.9 mph S11.1 kmh S 10.4 mph16.7 kmh 29.66 in1004.4 mb - 0.00 in0.0 mm 0.00 in0.0 mm
08:30 AM 78.2°F25.7°C 65.5°F18.6°C 65% 8.1 mph SSW13.0 kmh SSW 12.7 mph20.4 kmh 29.66 in1004.4 mb - 0.00 in0.0 mm 0.00 in0.0 mm
08:35 AM 78.3°F25.7°C 65.6°F18.7°C 65% 8.1 mph SSW13.0 kmh SSW 11.5 mph18.5 kmh 29.66 in1004.4 mb - 0.00 in0.0 mm 0.00 in0.0 mm
08:40 AM 78.3°F25.7°C 66.0°F18.9°C 66% 6.9 mph SSW11.1 kmh SSW 9.2 mph14.8 kmh 29.66 in1004.4 mb - 0.00 in0.0 mm 0.00 in0.0 mm
08:45 AM 78.7°F25.9°C 66.4°F19.1°C 66% 5.8 mph SSW9.3 kmh SSW 10.4 mph16.7 kmh 29.66 in1004.4 mb - 0.00 in0.0 mm 0.00 in0.0 mm
08:50 AM 79.0°F26.1°C 66.3°F19.1°C 65% 5.8 mph S9.3 kmh S 10.4 mph16.7 kmh 29.66 in1004.4 mb - 0.00 in0.0 mm 0.00 in0.0 mm
08:55 AM 79.4°F26.3°C 66.2°F19.0°C 64% 6.9 mph S11.1 kmh S 12.7 mph20.4 kmh 29.66 in1004.4 mb - 0.00 in0.0 mm 0.00 in0.0 mm
09:00 AM 79.4°F26.3°C 65.7°F18.7°C 63% 6.9 mph SSW11.1 kmh SSW 12.7 mph20.4 kmh 29.66 in1004.4 mb - 0.00 in0.0 mm 0.00 in0.0 mm
09:10 AM 79.3°F26.3°C 66.5°F19.2°C 65% 6.9 mph SSW11.1 kmh SSW 11.5 mph18.5 kmh 29.66 in1004.4 mb - 0.00 in0.0 mm 0.00 in0.0 mm
09:15 AM 79.5°F26.4°C 66.7°F19.3°C 65% 8.1 mph SSW13.0 kmh SSW 11.5 mph18.5 kmh 29.67 in1004.7 mb - 0.00 in0.0 mm 0.00 in0.0 mm
09:20 AM 79.7°F26.5°C 67.3°F19.6°C 66% 6.9 mph S11.1 kmh S 11.5 mph18.5 kmh 29.66 in1004.4 mb - 0.00 in0.0 mm 0.00 in0.0 mm
09:25 AM 79.9°F26.6°C 67.6°F19.8°C 66% 4.6 mph S7.4 kmh S 6.9 mph11.1 kmh 29.66 in1004.4 mb - 0.00 in0.0 mm 0.00 in0.0 mm
09:30 AM 80.2°F26.8°C 67.8°F19.9°C 66% 4.6 mph S7.4 kmh S 10.4 mph16.7 kmh 29.66 in1004.4 mb - 0.00 in0.0 mm 0.00 in0.0 mm
09:35 AM 80.7°F27.1°C 67.3°F19.6°C 64% 5.8 mph SW9.3 kmh SW 11.5 mph18.5 kmh 29.66 in1004.4 mb - 0.00 in0.0 mm 0.00 in0.0 mm
09:40 AM 81.2°F27.3°C 66.9°F19.4°C 62% 5.8 mph SSW9.3 kmh SSW 9.2 mph14.8 kmh 29.66 in1004.4 mb - 0.00 in0.0 mm 0.00 in0.0 mm
09:45 AM 81.8°F27.7°C 67.0°F19.4°C 61% 4.6 mph SW7.4 kmh SW 6.9 mph11.1 kmh 29.66 in1004.4 mb - 0.00 in0.0 mm 0.00 in0.0 mm
09:50 AM 82.3°F27.9°C 66.5°F19.2°C 59% 4.6 mph S7.4 kmh S 8.1 mph13.0 kmh 29.66 in1004.4 mb - 0.00 in0.0 mm 0.00 in0.0 mm
09:55 AM 81.9°F27.7°C 66.2°F19.0°C 59% 3.5 mph SW5.6 kmh SW 6.9 mph11.1 kmh 29.66 in1004.4 mb - 0.00 in0.0 mm 0.00 in0.0 mm
10:00 AM 82.1°F27.8°C 67.3°F19.6°C 61% 1.2 mph SSE1.9 kmh SSE 5.8 mph9.3 kmh 29.65 in1004.1 mb - 0.00 in0.0 mm 0.00 in0.0 mm
10:10 AM 83.9°F28.8°C 67.0°F19.4°C 57% 4.6 mph WSW7.4 kmh WSW 9.2 mph14.8 kmh 29.66 in1004.4 mb - 0.00 in0.0 mm 0.00 in0.0 mm
10:15 AM 84.6°F29.2°C 67.2°F19.6°C 56% 4.6 mph SW7.4 kmh SW 8.1 mph13.0 kmh 29.66 in1004.4 mb - 0.00 in0.0 mm 0.00 in0.0 mm
10:20 AM 85.0°F29.4°C 66.5°F19.2°C 54% 5.8 mph SW9.3 kmh SW 17.3 mph27.8 kmh 29.66 in1004.4 mb - 0.00 in0.0 mm 0.00 in0.0 mm
10:25 AM 85.0°F29.4°C 66.5°F19.2°C 54% 6.9 mph SSW11.1 kmh SSW 13.8 mph22.2 kmh 29.66 in1004.4 mb - 0.00 in0.0 mm 0.00 in0.0 mm
10:30 AM 85.0°F29.4°C 66.5°F19.2°C 54% 5.8 mph S9.3 kmh S 9.2 mph14.8 kmh 29.65 in1004.1 mb - 0.00 in0.0 mm 0.00 in0.0 mm
10:35 AM 85.1°F29.5°C 66.6°F19.2°C 54% 6.9 mph SW11.1 kmh SW 12.7 mph20.4 kmh 29.65 in1004.1 mb - 0.00 in0.0 mm 0.00 in0.0 mm
10:40 AM 85.1°F29.5°C 66.6°F19.2°C 54% 5.8 mph S9.3 kmh S 10.4 mph16.7 kmh 29.64 in1003.7 mb - 0.00 in0.0 mm 0.00 in0.0 mm
10:45 AM 85.3°F29.6°C 65.7°F18.7°C 52% 10.4 mph SW16.7 kmh SW 13.8 mph22.2 kmh 29.64 in1003.7 mb - 0.00 in0.0 mm 0.00 in0.0 mm
10:50 AM 85.3°F29.6°C 66.2°F19.0°C 53% 5.8 mph SSW9.3 kmh SSW 10.4 mph16.7 kmh 29.64 in1003.7 mb - 0.00 in0.0 mm 0.00 in0.0 mm
10:55 AM 85.2°F29.6°C 66.7°F19.3°C 54% 4.6 mph SW7.4 kmh SW 15.0 mph24.1 kmh 29.64 in1003.7 mb - 0.00 in0.0 mm 0.00 in0.0 mm
11:00 AM 85.3°F29.6°C 66.2°F19.0°C 53% 5.8 mph SW9.3 kmh SW 11.5 mph18.5 kmh 29.64 in1003.7 mb - 0.00 in0.0 mm 0.00 in0.0 mm
11:10 AM 85.7°F29.8°C 66.0°F18.9°C 52% 8.1 mph SW13.0 kmh SW 13.8 mph22.2 kmh 29.64 in1003.7 mb - 0.00 in0.0 mm 0.00 in0.0 mm
11:15 AM 85.9°F29.9°C 66.8°F19.3°C 53% 5.8 mph S9.3 kmh S 10.4 mph16.7 kmh 29.64 in1003.7 mb - 0.00 in0.0 mm 0.00 in0.0 mm
11:20 AM 86.2°F30.1°C 66.5°F19.2°C 52% 6.9 mph SSW11.1 kmh SSW 12.7 mph20.4 kmh 29.64 in1003.7 mb - 0.00 in0.0 mm 0.00 in0.0 mm
11:25 AM 85.5°F29.7°C 66.5°F19.2°C 53% 4.6 mph S7.4 kmh S 8.1 mph13.0 kmh 29.64 in1003.7 mb - 0.00 in0.0 mm 0.00 in0.0 mm
11:30 AM 86.5°F30.3°C 67.4°F19.7°C 53% 4.6 mph S7.4 kmh S 11.5 mph18.5 kmh 29.64 in1003.7 mb - 0.00 in0.0 mm 0.00 in0.0 mm
11:35 AM 87.0°F30.6°C 67.3°F19.6°C 52% 3.5 mph SW5.6 kmh SW 10.4 mph16.7 kmh 29.64 in1003.7 mb - 0.00 in0.0 mm 0.00 in0.0 mm
11:40 AM 87.2°F30.7°C 66.9°F19.4°C 51% 5.8 mph SSW9.3 kmh SSW 12.7 mph20.4 kmh 29.64 in1003.7 mb - 0.00 in0.0 mm 0.00 in0.0 mm
11:45 AM 86.8°F30.4°C 67.1°F19.5°C 52% 6.9 mph SSW11.1 kmh SSW 13.8 mph22.2 kmh 29.63 in1003.4 mb - 0.00 in0.0 mm 0.00 in0.0 mm
11:50 AM 86.9°F30.5°C 67.1°F19.5°C 52% 6.9 mph S11.1 kmh S 11.5 mph18.5 kmh 29.63 in1003.4 mb - 0.00 in0.0 mm 0.00 in0.0 mm
11:55 AM 87.1°F30.6°C 66.2°F19.0°C 50% 6.9 mph SW11.1 kmh SW 9.2 mph14.8 kmh 29.63 in1003.4 mb - 0.00 in0.0 mm 0.00 in0.0 mm
12:00 PM 87.1°F30.6°C 67.4°F19.7°C 52% 6.9 mph S11.1 kmh S 15.0 mph24.1 kmh 29.63 in1003.4 mb - 0.00 in0.0 mm 0.00 in0.0 mm
12:10 PM 87.3°F30.7°C 66.9°F19.4°C 51% 5.8 mph S9.3 kmh S 11.5 mph18.5 kmh 29.62 in1003.0 mb - 0.00 in0.0 mm 0.00 in0.0 mm
12:15 PM 87.8°F31.0°C 66.8°F19.3°C 50% 6.9 mph S11.1 kmh S 13.8 mph22.2 kmh 29.62 in1003.0 mb - 0.00 in0.0 mm 0.00 in0.0 mm
12:20 PM 87.7°F30.9°C 67.3°F19.6°C 51% 8.1 mph S13.0 kmh S 12.7 mph20.4 kmh 29.62 in1003.0 mb - 0.00 in0.0 mm 0.00 in0.0 mm
12:25 PM 87.8°F31.0°C 67.4°F19.7°C 51% 3.5 mph S5.6 kmh S 10.4 mph16.7 kmh 29.61 in1002.7 mb - 0.00 in0.0 mm 0.00 in0.0 mm
12:30 PM 88.2°F31.2°C 67.2°F19.6°C 50% 5.8 mph SW9.3 kmh SW 4.6 mph7.4 kmh 29.61 in1002.7 mb - 0.00 in0.0 mm 0.00 in0.0 mm
12:35 PM 88.3°F31.3°C 66.8°F19.3°C 49% 10.4 mph S16.7 kmh S 12.7 mph20.4 kmh 29.60 in1002.4 mb - 0.00 in0.0 mm 0.00 in0.0 mm
12:40 PM 88.4°F31.3°C 66.8°F19.3°C 49% 6.9 mph SW11.1 kmh SW 12.7 mph20.4 kmh 29.60 in1002.4 mb - 0.00 in0.0 mm 0.00 in0.0 mm
12:45 PM 88.1°F31.2°C 66.5°F19.2°C 49% 8.1 mph SW13.0 kmh SW 10.4 mph16.7 kmh 29.60 in1002.4 mb - 0.00 in0.0 mm 0.00 in0.0 mm
12:50 PM 87.8°F31.0°C 66.8°F19.3°C 50% 6.9 mph SSW11.1 kmh SSW 11.5 mph18.5 kmh 29.60 in1002.4 mb - 0.00 in0.0 mm 0.00 in0.0 mm
12:55 PM 88.0°F31.1°C 66.4°F19.1°C 49% 6.9 mph SW11.1 kmh SW 11.5 mph18.5 kmh 29.60 in1002.4 mb - 0.00 in0.0 mm 0.00 in0.0 mm
01:00 PM 88.3°F31.3°C 66.7°F19.3°C 49% 6.9 mph SSW11.1 kmh SSW 11.5 mph18.5 kmh 29.59 in1002.0 mb - 0.00 in0.0 mm 0.00 in0.0 mm
01:10 PM 88.9°F31.6°C 66.0°F18.9°C 47% 10.4 mph SSW16.7 kmh SSW 12.7 mph20.4 kmh 29.60 in1002.4 mb - 0.00 in0.0 mm 0.00 in0.0 mm
01:15 PM 88.7°F31.5°C 65.9°F18.8°C 47% 5.8 mph SW9.3 kmh SW 12.7 mph20.4 kmh 29.60 in1002.4 mb - 0.00 in0.0 mm 0.00 in0.0 mm
01:20 PM 88.6°F31.4°C 65.8°F18.8°C 47% 9.2 mph SSW14.8 kmh SSW 11.5 mph18.5 kmh 29.59 in1002.0 mb - 0.00 in0.0 mm 0.00 in0.0 mm
01:25 PM 89.1°F31.7°C 65.6°F18.7°C 46% 10.4 mph SSW16.7 kmh SSW 16.1 mph25.9 kmh 29.60 in1002.4 mb - 0.00 in0.0 mm 0.00 in0.0 mm
01:30 PM 89.1°F31.7°C 66.3°F19.1°C 47% 11.5 mph S18.5 kmh S 18.4 mph29.6 kmh 29.59 in1002.0 mb - 0.00 in0.0 mm 0.00 in0.0 mm
01:35 PM 89.5°F31.9°C 66.6°F19.2°C 47% 6.9 mph S11.1 kmh S 13.8 mph22.2 kmh 29.59 in1002.0 mb - 0.00 in0.0 mm 0.00 in0.0 mm
01:40 PM 90.1°F32.3°C 65.9°F18.8°C 45% 9.2 mph SSW14.8 kmh SSW 11.5 mph18.5 kmh 29.59 in1002.0 mb - 0.00 in0.0 mm 0.00 in0.0 mm
01:45 PM 90.2°F32.3°C 66.0°F18.9°C 45% 6.9 mph SW11.1 kmh SW 9.2 mph14.8 kmh 29.59 in1002.0 mb - 0.00 in0.0 mm 0.00 in0.0 mm
01:50 PM 90.3°F32.4°C 65.4°F18.6°C 44% 6.9 mph SSW11.1 kmh SSW 11.5 mph18.5 kmh 29.60 in1002.4 mb - 0.00 in0.0 mm 0.00 in0.0 mm
01:55 PM 88.9°F31.6°C 64.8°F18.2°C 45% 5.8 mph SSW9.3 kmh SSW 9.2 mph14.8 kmh 29.60 in1002.4 mb - 0.00 in0.0 mm 0.00 in0.0 mm
02:00 PM 88.7°F31.5°C 65.2°F18.4°C 46% 4.6 mph S7.4 kmh S 12.7 mph20.4 kmh 29.60 in1002.4 mb - 0.00 in0.0 mm 0.00 in0.0 mm
02:10 PM 88.2°F31.2°C 66.1°F18.9°C 48% 2.3 mph S3.7 kmh S 9.2 mph14.8 kmh 29.59 in1002.0 mb - 0.00 in0.0 mm 0.00 in0.0 mm
02:15 PM 88.6°F31.4°C 65.8°F18.8°C 47% 5.8 mph SSW9.3 kmh SSW 10.4 mph16.7 kmh 29.58 in1001.7 mb - 0.00 in0.0 mm 0.00 in0.0 mm
02:20 PM 88.2°F31.2°C 64.8°F18.2°C 46% 6.9 mph SSW11.1 kmh SSW 9.2 mph14.8 kmh 29.58 in1001.7 mb - 0.00 in0.0 mm 0.00 in0.0 mm
02:25 PM 88.7°F31.5°C 66.4°F19.1°C 48% 5.8 mph S9.3 kmh S 13.8 mph22.2 kmh 29.59 in1002.0 mb - 0.00 in0.0 mm 0.00 in0.0 mm
02:30 PM 89.1°F31.7°C 66.2°F19.0°C 47% 4.6 mph SSW7.4 kmh SSW 9.2 mph14.8 kmh 29.59 in1002.0 mb - 0.00 in0.0 mm 0.00 in0.0 mm
02:35 PM 89.0°F31.7°C 66.8°F19.3°C 48% 5.8 mph S9.3 kmh S 8.1 mph13.0 kmh 29.58 in1001.7 mb - 0.00 in0.0 mm 0.00 in0.0 mm
02:40 PM 88.3°F31.3°C 66.1°F18.9°C 48% 5.8 mph W9.3 kmh W 21.9 mph35.2 kmh 29.60 in1002.4 mb - 0.00 in0.0 mm 0.00 in0.0 mm
02:45 PM 84.8°F29.3°C 62.4°F16.9°C 47% 9.2 mph NW14.8 kmh NW 23.0 mph37.0 kmh 29.59 in1002.0 mb - 0.00 in0.0 mm 0.00 in0.0 mm
02:50 PM 80.4°F26.9°C 62.8°F17.1°C 55% 12.7 mph NW20.4 kmh NW 16.1 mph25.9 kmh 29.59 in1002.0 mb - 0.00 in0.0 mm 0.00 in0.0 mm
02:55 PM 78.8°F26.0°C 63.3°F17.4°C 59% 3.5 mph NW5.6 kmh NW 9.2 mph14.8 kmh 29.60 in1002.4 mb - 0.00 in0.0 mm 0.00 in0.0 mm
03:00 PM 78.2°F25.7°C 63.2°F17.3°C 60% 6.9 mph NW11.1 kmh NW 11.5 mph18.5 kmh 29.59 in1002.0 mb - 0.00 in0.0 mm 0.00 in0.0 mm
03:10 PM 76.8°F24.9°C 62.8°F17.1°C 62% 6.9 mph N11.1 kmh N 9.2 mph14.8 kmh 29.58 in1001.7 mb - 0.00 in0.0 mm 0.00 in0.0 mm
03:15 PM 76.3°F24.6°C 62.7°F17.1°C 63% 3.5 mph NW5.6 kmh NW 3.5 mph5.6 kmh 29.59 in1002.0 mb - 0.00 in0.0 mm 0.00 in0.0 mm
03:20 PM 76.0°F24.4°C 63.3°F17.4°C 65% 1.2 mph SW1.9 kmh SW 1.2 mph1.9 kmh 29.61 in1002.7 mb - 0.00 in0.0 mm 0.00 in0.0 mm
03:25 PM 75.9°F24.4°C 63.3°F17.4°C 65% Calm Calm 2.3 mph3.7 kmh 29.60 in1002.4 mb - 0.00 in0.0 mm 0.00 in0.0 mm
03:30 PM 75.7°F24.3°C 63.1°F17.3°C 65% Calm Calm 1.2 mph1.9 kmh 29.59 in1002.0 mb - 0.00 in0.0 mm 0.00 in0.0 mm
03:35 PM 75.6°F24.2°C 64.3°F17.9°C 68% 1.2 mph W1.9 kmh W 3.5 mph5.6 kmh 29.59 in1002.0 mb - 0.00 in0.0 mm 0.00 in0.0 mm
03:40 PM 75.2°F24.0°C 67.2°F19.6°C 76% 3.5 mph NW5.6 kmh NW 4.6 mph7.4 kmh 29.59 in1002.0 mb - 0.02 in0.5 mm 0.02 in0.5 mm
03:45 PM 73.9°F23.3°C 65.9°F18.8°C 76% 1.2 mph NW1.9 kmh NW 2.3 mph3.7 kmh 29.59 in1002.0 mb - 0.01 in0.3 mm 0.03 in0.8 mm
03:50 PM 72.9°F22.7°C 65.6°F18.7°C 78% 2.3 mph W3.7 kmh W 3.5 mph5.6 kmh 29.59 in1002.0 mb - 0.00 in0.0 mm 0.03 in0.8 mm
03:55 PM 72.2°F22.3°C 65.3°F18.5°C 79% 1.2 mph WSW1.9 kmh WSW 3.5 mph5.6 kmh 29.59 in1002.0 mb - 0.00 in0.0 mm 0.03 in0.8 mm
04:00 PM 71.8°F22.1°C 65.6°F18.7°C 81% Calm Calm -- 29.59 in1002.0 mb - 0.01 in0.3 mm 0.04 in1.0 mm
04:10 PM 71.2°F21.8°C 66.1°F18.9°C 84% 3.5 mph NNW5.6 kmh NNW 5.8 mph9.3 kmh 29.59 in1002.0 mb - 0.01 in0.3 mm 0.05 in1.3 mm
04:15 PM 70.9°F21.6°C 66.2°F19.0°C 85% 2.3 mph NW3.7 kmh NW 5.8 mph9.3 kmh 29.59 in1002.0 mb - 0.00 in0.0 mm 0.05 in1.3 mm
04:20 PM 71.1°F21.7°C 66.4°F19.1°C 85% 1.2 mph NW1.9 kmh NW 2.3 mph3.7 kmh 29.58 in1001.7 mb - 0.00 in0.0 mm 0.05 in1.3 mm
04:25 PM 72.1°F22.3°C 68.1°F20.1°C 87% 1.2 mph NW1.9 kmh NW 3.5 mph5.6 kmh 29.57 in1001.4 mb - 0.00 in0.0 mm 0.05 in1.3 mm
04:30 PM 73.4°F23.0°C 66.5°F19.2°C 79% 3.5 mph N5.6 kmh N 3.5 mph5.6 kmh 29.57 in1001.4 mb - 0.00 in0.0 mm 0.05 in1.3 mm
04:35 PM 73.9°F23.3°C 66.6°F19.2°C 78% 1.2 mph N1.9 kmh N 3.5 mph5.6 kmh 29.57 in1001.4 mb - 0.00 in0.0 mm 0.05 in1.3 mm
04:40 PM 74.0°F23.3°C 66.3°F19.1°C 77% 1.2 mph NW1.9 kmh NW 3.5 mph5.6 kmh 29.58 in1001.7 mb - 0.00 in0.0 mm 0.05 in1.3 mm
04:45 PM 74.0°F23.3°C 66.3°F19.1°C 77% 1.2 mph W1.9 kmh W 3.5 mph5.6 kmh 29.60 in1002.4 mb - 0.00 in0.0 mm 0.05 in1.3 mm
04:50 PM 73.5°F23.1°C 67.3°F19.6°C 81% 5.8 mph WNW9.3 kmh WNW 9.2 mph14.8 kmh 29.60 in1002.4 mb - 0.13 in3.3 mm 0.17 in4.3 mm
04:55 PM 71.8°F22.1°C 66.7°F19.3°C 84% 8.1 mph N13.0 kmh N 13.8 mph22.2 kmh 29.57 in1001.4 mb - 0.11 in2.8 mm 0.25 in6.4 mm
05:00 PM 71.1°F21.7°C 66.7°F19.3°C 86% 2.3 mph SE3.7 kmh SE 4.6 mph7.4 kmh 29.57 in1001.4 mb - 0.00 in0.0 mm 0.25 in6.4 mm
05:10 PM 71.0°F21.7°C 67.3°F19.6°C 88% 1.2 mph E1.9 kmh E 5.8 mph9.3 kmh 29.58 in1001.7 mb - 0.00 in0.0 mm 0.25 in6.4 mm
05:15 PM 71.0°F21.7°C 67.6°F19.8°C 89% 1.2 mph E1.9 kmh E 1.2 mph1.9 kmh 29.58 in1001.7 mb - 0.00 in0.0 mm 0.25 in6.4 mm
05:20 PM 71.2°F21.8°C 68.1°F20.1°C 90% Calm Calm 1.2 mph1.9 kmh 29.58 in1001.7 mb - 0.00 in0.0 mm 0.25 in6.4 mm
05:25 PM 71.6°F22.0°C 68.8°F20.4°C 91% 5.8 mph NE9.3 kmh NE 8.1 mph13.0 kmh 29.57 in1001.4 mb - 0.00 in0.0 mm 0.25 in6.4 mm
05:30 PM 72.1°F22.3°C 69.0°F20.6°C 90% 2.3 mph NE3.7 kmh NE 5.8 mph9.3 kmh 29.57 in1001.4 mb - 0.00 in0.0 mm 0.25 in6.4 mm
05:35 PM 72.6°F22.6°C 69.2°F20.7°C 89% 1.2 mph NE1.9 kmh NE 3.5 mph5.6 kmh 29.57 in1001.4 mb - 0.00 in0.0 mm 0.25 in6.4 mm
05:40 PM 72.8°F22.7°C 68.8°F20.4°C 87% 2.3 mph NNE3.7 kmh NNE 5.8 mph9.3 kmh 29.57 in1001.4 mb - 0.00 in0.0 mm 0.25 in6.4 mm
05:45 PM 72.9°F22.7°C 68.5°F20.3°C 86% 3.5 mph NNE5.6 kmh NNE 5.8 mph9.3 kmh 29.57 in1001.4 mb - 0.00 in0.0 mm 0.25 in6.4 mm
05:50 PM 73.1°F22.8°C 69.0°F20.6°C 87% 3.5 mph NE5.6 kmh NE 9.2 mph14.8 kmh 29.56 in1001.0 mb - 0.00 in0.0 mm 0.25 in6.4 mm
05:55 PM 73.3°F22.9°C 68.5°F20.3°C 85% 3.5 mph NE5.6 kmh NE 6.9 mph11.1 kmh 29.56 in1001.0 mb - 0.00 in0.0 mm 0.25 in6.4 mm
06:00 PM 73.5°F23.1°C 68.4°F20.2°C 84% 2.3 mph ENE3.7 kmh ENE 3.5 mph5.6 kmh 29.56 in1001.0 mb - 0.00 in0.0 mm 0.25 in6.4 mm
06:10 PM 73.3°F22.9°C 68.5°F20.3°C 85% 1.2 mph NE1.9 kmh NE 3.5 mph5.6 kmh 29.56 in1001.0 mb - 0.00 in0.0 mm 0.25 in6.4 mm
06:15 PM 73.3°F22.9°C 68.5°F20.3°C 85% 1.2 mph E1.9 kmh E 3.5 mph5.6 kmh 29.56 in1001.0 mb - 0.00 in0.0 mm 0.25 in6.4 mm
06:20 PM 73.4°F23.0°C 68.6°F20.3°C 85% 2.3 mph E3.7 kmh E 5.8 mph9.3 kmh 29.57 in1001.4 mb - 0.00 in0.0 mm 0.25 in6.4 mm
06:25 PM 73.4°F23.0°C 68.9°F20.5°C 86% 2.3 mph E3.7 kmh E 3.5 mph5.6 kmh 29.57 in1001.4 mb - 0.00 in0.0 mm 0.25 in6.4 mm
06:30 PM 73.5°F23.1°C 69.0°F20.6°C 86% 1.2 mph E1.9 kmh E 4.6 mph7.4 kmh 29.57 in1001.4 mb - 0.00 in0.0 mm 0.25 in6.4 mm
06:35 PM 73.6°F23.1°C 68.8°F20.4°C 85% 1.2 mph E1.9 kmh E 3.5 mph5.6 kmh 29.57 in1001.4 mb - 0.00 in0.0 mm 0.25 in6.4 mm
06:40 PM 73.6°F23.1°C 68.8°F20.4°C 85% 1.2 mph E1.9 kmh E 1.2 mph1.9 kmh 29.57 in1001.4 mb - 0.00 in0.0 mm 0.25 in6.4 mm
06:45 PM 73.5°F23.1°C 69.1°F20.6°C 86% 1.2 mph E1.9 kmh E 5.8 mph9.3 kmh 29.56 in1001.0 mb - 0.00 in0.0 mm 0.25 in6.4 mm
06:50 PM 73.3°F22.9°C 68.8°F20.4°C 86% 1.2 mph E1.9 kmh E 2.3 mph3.7 kmh 29.55 in1000.7 mb - 0.00 in0.0 mm 0.25 in6.4 mm
06:55 PM 72.9°F22.7°C 68.5°F20.3°C 86% 2.3 mph E3.7 kmh E 3.5 mph5.6 kmh 29.56 in1001.0 mb - 0.00 in0.0 mm 0.25 in6.4 mm
07:00 PM 72.7°F22.6°C 68.3°F20.2°C 86% 1.2 mph E1.9 kmh E 3.5 mph5.6 kmh 29.56 in1001.0 mb - 0.00 in0.0 mm 0.25 in6.4 mm
07:10 PM 72.3°F22.4°C 68.2°F20.1°C 87% 2.3 mph E3.7 kmh E 3.5 mph5.6 kmh 29.56 in1001.0 mb - 0.00 in0.0 mm 0.25 in6.4 mm
07:15 PM 72.1°F22.3°C 68.0°F20.0°C 87% 1.2 mph E1.9 kmh E 2.3 mph3.7 kmh 29.56 in1001.0 mb - 0.00 in0.0 mm 0.25 in6.4 mm
07:20 PM 71.9°F22.2°C 68.2°F20.1°C 88% Calm Calm 1.2 mph1.9 kmh 29.56 in1001.0 mb - 0.00 in0.0 mm 0.25 in6.4 mm
07:25 PM 71.8°F22.1°C 68.1°F20.1°C 88% 1.2 mph ESE1.9 kmh ESE 5.8 mph9.3 kmh 29.56 in1001.0 mb - 0.00 in0.0 mm 0.25 in6.4 mm
07:30 PM 71.6°F22.0°C 67.5°F19.7°C 87% 2.3 mph E3.7 kmh E 6.9 mph11.1 kmh 29.56 in1001.0 mb - 0.00 in0.0 mm 0.25 in6.4 mm
07:35 PM 71.5°F21.9°C 67.4°F19.7°C 87% 1.2 mph ESE1.9 kmh ESE 6.9 mph11.1 kmh 29.56 in1001.0 mb - 0.00 in0.0 mm 0.25 in6.4 mm
07:40 PM 71.3°F21.8°C 67.2°F19.6°C 87% 2.3 mph ESE3.7 kmh ESE 5.8 mph9.3 kmh 29.56 in1001.0 mb - 0.00 in0.0 mm 0.25 in6.4 mm
07:45 PM 71.2°F21.8°C 66.8°F19.3°C 86% 3.5 mph SE5.6 kmh SE 10.4 mph16.7 kmh 29.56 in1001.0 mb - 0.00 in0.0 mm 0.25 in6.4 mm
07:50 PM 71.1°F21.7°C 66.7°F19.3°C 86% 5.8 mph ESE9.3 kmh ESE 8.1 mph13.0 kmh 29.56 in1001.0 mb - 0.00 in0.0 mm 0.25 in6.4 mm
07:55 PM 71.0°F21.7°C 66.9°F19.4°C 87% 2.3 mph ESE3.7 kmh ESE 9.2 mph14.8 kmh 29.56 in1001.0 mb - 0.00 in0.0 mm 0.25 in6.4 mm
08:00 PM 70.9°F21.6°C 66.8°F19.3°C 87% 3.5 mph SE5.6 kmh SE 6.9 mph11.1 kmh 29.55 in1000.7 mb - 0.00 in0.0 mm 0.25 in6.4 mm
08:10 PM 70.7°F21.5°C 66.3°F19.1°C 86% 4.6 mph SE7.4 kmh SE 9.2 mph14.8 kmh 29.55 in1000.7 mb - 0.00 in0.0 mm 0.25 in6.4 mm
08:15 PM 70.6°F21.4°C 66.2°F19.0°C 86% 2.3 mph SE3.7 kmh SE 6.9 mph11.1 kmh 29.55 in1000.7 mb - 0.00 in0.0 mm 0.25 in6.4 mm
08:20 PM 70.5°F21.4°C 66.1°F18.9°C 86% 1.2 mph SE1.9 kmh SE 3.5 mph5.6 kmh 29.55 in1000.7 mb - 0.00 in0.0 mm 0.25 in6.4 mm
08:25 PM 70.3°F21.3°C 65.9°F18.8°C 86% 2.3 mph ESE3.7 kmh ESE 6.9 mph11.1 kmh 29.55 in1000.7 mb - 0.00 in0.0 mm 0.25 in6.4 mm
08:30 PM 70.2°F21.2°C 66.1°F18.9°C 87% 3.5 mph SE5.6 kmh SE 11.5 mph18.5 kmh 29.54 in1000.3 mb - 0.00 in0.0 mm 0.25 in6.4 mm
08:35 PM 70.1°F21.2°C 66.0°F18.9°C 87% 3.5 mph SE5.6 kmh SE 8.1 mph13.0 kmh 29.54 in1000.3 mb - 0.00 in0.0 mm 0.25 in6.4 mm
08:40 PM 70.1°F21.2°C 66.0°F18.9°C 87% 2.3 mph SE3.7 kmh SE 5.8 mph9.3 kmh 29.54 in1000.3 mb - 0.00 in0.0 mm 0.25 in6.4 mm
08:45 PM 70.0°F21.1°C 66.0°F18.9°C 87% 3.5 mph SE5.6 kmh SE 6.9 mph11.1 kmh 29.54 in1000.3 mb - 0.00 in0.0 mm 0.25 in6.4 mm
08:50 PM 69.8°F21.0°C 65.8°F18.8°C 87% 2.3 mph SE3.7 kmh SE 3.5 mph5.6 kmh 29.54 in1000.3 mb - 0.00 in0.0 mm 0.25 in6.4 mm
08:55 PM 69.6°F20.9°C 65.9°F18.8°C 88% 1.2 mph SE1.9 kmh SE 3.5 mph5.6 kmh 29.53 in1000.0 mb - 0.00 in0.0 mm 0.25 in6.4 mm
09:00 PM 69.5°F20.8°C 65.8°F18.8°C 88% 1.2 mph SSE1.9 kmh SSE 3.5 mph5.6 kmh 29.53 in1000.0 mb - 0.00 in0.0 mm 0.25 in6.4 mm
09:10 PM 69.5°F20.8°C 65.7°F18.7°C 88% Calm Calm 2.3 mph3.7 kmh 29.53 in1000.0 mb - 0.00 in0.0 mm 0.25 in6.4 mm
09:15 PM 69.5°F20.8°C 65.8°F18.8°C 88% Calm Calm 1.2 mph1.9 kmh 29.54 in1000.3 mb - 0.00 in0.0 mm 0.25 in6.4 mm
09:20 PM 69.4°F20.8°C 65.7°F18.7°C 88% Calm Calm -- 29.54 in1000.3 mb - 0.00 in0.0 mm 0.25 in6.4 mm
09:25 PM 69.2°F20.7°C 65.9°F18.8°C 89% 1.2 mph NW1.9 kmh NW 3.5 mph5.6 kmh 29.55 in1000.7 mb - 0.00 in0.0 mm 0.25 in6.4 mm
09:30 PM 69.1°F20.6°C 66.0°F18.9°C 90% 5.8 mph NW9.3 kmh NW 11.5 mph18.5 kmh 29.56 in1001.0 mb - 0.00 in0.0 mm 0.25 in6.4 mm
09:35 PM 69.4°F20.8°C 66.3°F19.1°C 90% 8.1 mph NW13.0 kmh NW 15.0 mph24.1 kmh 29.56 in1001.0 mb - 0.00 in0.0 mm 0.25 in6.4 mm
09:40 PM 70.0°F21.1°C 66.3°F19.1°C 88% 5.8 mph NW9.3 kmh NW 9.2 mph14.8 kmh 29.56 in1001.0 mb - 0.00 in0.0 mm 0.25 in6.4 mm
09:45 PM 70.3°F21.3°C 65.5°F18.6°C 85% 2.3 mph NW3.7 kmh NW 4.6 mph7.4 kmh 29.55 in1000.7 mb - 0.00 in0.0 mm 0.25 in6.4 mm
09:50 PM 70.5°F21.4°C 64.7°F18.2°C 82% 1.2 mph NW1.9 kmh NW 2.3 mph3.7 kmh 29.55 in1000.7 mb - 0.00 in0.0 mm 0.25 in6.4 mm
09:55 PM 70.5°F21.4°C 63.3°F17.4°C 78% 2.3 mph W3.7 kmh W 2.3 mph3.7 kmh 29.55 in1000.7 mb - 0.00 in0.0 mm 0.25 in6.4 mm
10:00 PM 70.6°F21.4°C 62.7°F17.1°C 76% Calm Calm 1.2 mph1.9 kmh 29.55 in1000.7 mb - 0.00 in0.0 mm 0.25 in6.4 mm
10:10 PM 70.4°F21.3°C 62.5°F16.9°C 76% Calm Calm -- 29.53 in1000.0 mb - 0.00 in0.0 mm 0.25 in6.4 mm
10:15 PM 70.2°F21.2°C 61.9°F16.6°C 75% Calm Calm -- 29.52 in999.7 mb - 0.00 in0.0 mm 0.25 in6.4 mm
10:20 PM 70.0°F21.1°C 61.7°F16.5°C 75% Calm Calm 2.3 mph3.7 kmh 29.52 in999.7 mb - 0.00 in0.0 mm 0.25 in6.4 mm
10:25 PM 69.9°F21.1°C 61.6°F16.4°C 75% Calm Calm -- 29.52 in999.7 mb - 0.00 in0.0 mm 0.25 in6.4 mm
10:35 PM 69.6°F20.9°C 61.3°F16.3°C 75% Calm Calm -- 29.52 in999.7 mb - 0.00 in0.0 mm 0.25 in6.4 mm
10:40 PM 69.4°F20.8°C 61.9°F16.6°C 77% Calm Calm -- 29.51 in999.3 mb - 0.00 in0.0 mm 0.25 in6.4 mm
10:45 PM 69.2°F20.7°C 62.1°F16.7°C 78% Calm Calm -- 29.51 in999.3 mb - 0.00 in0.0 mm 0.25 in6.4 mm
10:50 PM 69.1°F20.6°C 61.9°F16.6°C 78% Calm Calm -- 29.51 in999.3 mb - 0.00 in0.0 mm 0.25 in6.4 mm
10:55 PM 68.8°F20.4°C 62.0°F16.7°C 79% Calm Calm -- 29.51 in999.3 mb - 0.00 in0.0 mm 0.25 in6.4 mm
11:00 PM 68.6°F20.3°C 62.5°F16.9°C 81% Calm Calm -- 29.50 in999.0 mb - 0.00 in0.0 mm 0.29 in7.4 mm
11:10 PM 68.1°F20.1°C 62.4°F16.9°C 82% Calm Calm -- 29.50 in999.0 mb - 0.00 in0.0 mm 0.29 in7.4 mm
11:15 PM 68.0°F20.0°C 62.3°F16.8°C 82% Calm Calm -- 29.49 in998.6 mb - 0.00 in0.0 mm 0.29 in7.4 mm
11:20 PM 68.0°F20.0°C 62.9°F17.2°C 84% Calm Calm -- 29.48 in998.3 mb - 0.00 in0.0 mm 0.29 in7.4 mm
11:25 PM 67.9°F19.9°C 62.9°F17.2°C 84% 1.2 mph SSW1.9 kmh SSW 11.5 mph18.5 kmh 29.49 in998.6 mb - 0.00 in0.0 mm 0.29 in7.4 mm
11:30 PM 67.5°F19.7°C 62.8°F17.1°C 85% 20.7 mph W33.3 kmh W 36.8 mph59.2 kmh 29.61 in1002.7 mb - 0.13 in3.3 mm 0.13 in3.3 mm
11:35 PM 64.7°F18.2°C 61.3°F16.3°C 89% 15.0 mph WNW24.1 kmh WNW 26.5 mph42.6 kmh 29.60 in1002.4 mb - 0.17 in4.3 mm 0.24 in6.1 mm
11:40 PM 63.3°F17.4°C 60.6°F15.9°C 91% 12.7 mph W20.4 kmh W 19.6 mph31.5 kmh 29.59 in1002.0 mb - 0.03 in0.8 mm 0.27 in6.9 mm
11:45 PM 62.8°F17.1°C 60.8°F16.0°C 93% 8.1 mph W13.0 kmh W 11.5 mph18.5 kmh 29.60 in1002.4 mb - 0.02 in0.5 mm 0.28 in7.1 mm
11:50 PM 62.7°F17.1°C 60.7°F15.9°C 93% 5.8 mph WNW9.3 kmh WNW 11.5 mph18.5 kmh 29.58 in1001.7 mb - 0.00 in0.0 mm 0.28 in7.1 mm
11:55 PM 62.6°F17.0°C 60.9°F16.1°C 94% 3.5 mph W5.6 kmh W 10.4 mph16.7 kmh 29.59 in1002.0 mb - 0.01 in0.3 mm 0.29 in7.4 mm